Time;durP1;ratioP1;P1;durP2;ratioP2;P2;SDS_P1;SDS_P2;PMS_P1;PMS_P2;Temp;Humidity;BMP_temperature;BMP_pressure;BME280_temperature;BME280_humidity;BME280_pressure;Samples;Min_cycle;Max_cycle;Signal;HPM_P1;HPM_P2
2023/04/24 00:01:47;;;;;;;2.13;2.00;;;12.00;94.10;;;;;;5098470;28;20212;-89
2023/04/24 00:04:16;;;;;;;2.47;1.80;;;12.10;93.30;;;;;;5092419;28;20178;-89
2023/04/24 00:06:42;;;;;;;1.80;1.70;;;12.10;92.60;;;;;;5082701;28;20203;-90
2023/04/24 00:09:09;;;;;;;4.13;2.10;;;12.10;93.10;;;;;;5097751;28;20227;-90
2023/04/24 00:11:36;;;;;;;2.60;2.07;;;12.20;92.10;;;;;;5096598;28;20195;-90
2023/04/24 00:14:02;;;;;;;2.73;1.93;;;12.20;92.80;;;;;;5096991;28;20220;-90
2023/04/24 00:16:28;;;;;;;2.43;1.80;;;12.20;91.70;;;;;;5094699;28;20193;-90
2023/04/24 00:18:54;;;;;;;3.40;2.10;;;12.30;91.60;;;;;;5075033;28;20173;-89
2023/04/24 00:21:21;;;;;;;2.63;1.90;;;12.30;91.80;;;;;;5075600;28;20198;-89
2023/04/24 00:23:47;;;;;;;2.20;2.00;;;12.30;91.90;;;;;;5076423;28;20675;-89
2023/04/24 00:26:13;;;;;;;2.00;1.90;;;12.30;92.60;;;;;;5077488;28;20510;-90
2023/04/24 00:28:39;;;;;;;2.50;1.93;;;12.30;92.00;;;;;;5079801;28;20196;-91
2023/04/24 00:31:05;;;;;;;2.07;1.97;;;12.20;92.40;;;;;;5074285;28;20217;-90
2023/04/24 00:33:30;;;;;;;2.03;1.63;;;12.20;93.80;;;;;;5075433;28;20577;-90
2023/04/24 00:35:56;;;;;;;3.37;2.03;;;12.10;94.60;;;;;;5075469;28;20276;-91
2023/04/24 00:38:22;;;;;;;1.90;1.80;;;12.00;94.80;;;;;;5074431;28;20197;-90
2023/04/24 00:40:49;;;;;;;4.03;1.80;;;12.00;94.50;;;;;;5077668;28;20268;-91
2023/04/24 00:43:15;;;;;;;2.50;2.00;;;12.00;94.50;;;;;;5078834;28;20179;-91
2023/04/24 00:45:41;;;;;;;2.00;1.70;;;12.00;95.20;;;;;;5088715;28;20249;-91
2023/04/24 00:48:07;;;;;;;2.10;1.90;;;12.00;94.60;;;;;;5099143;28;20219;-89
2023/04/24 00:50:35;;;;;;;2.50;1.97;;;12.00;94.50;;;;;;5100656;28;20209;-90
2023/04/24 00:53:01;;;;;;;2.77;1.90;;;12.00;94.50;;;;;;5100313;28;20208;-89
2023/04/24 00:55:26;;;;;;;2.80;2.00;;;12.10;94.60;;;;;;5079075;28;20190;-89
2023/04/24 00:57:52;;;;;;;2.17;1.80;;;12.00;95.00;;;;;;5076156;28;20273;-90
2023/04/24 01:00:19;;;;;;;2.30;2.00;;;12.10;93.70;;;;;;5075271;28;20544;-89
2023/04/24 01:02:45;;;;;;;2.10;2.00;;;12.10;93.90;;;;;;5078279;28;20250;-89
2023/04/24 01:05:15;;;;;;;2.20;1.80;;;12.00;94.50;;;;;;5097341;28;20193;-90
2023/04/24 01:07:43;;;;;;;2.13;1.80;;;12.10;95.40;;;;;;5077481;28;20189;-89
2023/04/24 01:10:10;;;;;;;2.27;2.07;;;12.10;94.70;;;;;;5076084;28;20702;-88
2023/04/24 01:12:36;;;;;;;2.50;2.10;;;12.10;94.20;;;;;;5077898;28;20275;-89
2023/04/24 01:15:03;;;;;;;1.70;1.60;;;12.10;94.00;;;;;;5075311;28;20192;-90
2023/04/24 01:17:29;;;;;;;1.83;1.73;;;12.10;93.70;;;;;;5075758;28;20181;-89
2023/04/24 01:19:56;;;;;;;1.83;1.73;;;12.00;95.00;;;;;;5074519;28;20181;-90
2023/04/24 01:22:22;;;;;;;1.70;1.60;;;12.00;95.80;;;;;;5073213;28;20284;-90
2023/04/24 01:24:48;;;;;;;3.13;2.00;;;12.00;96.00;;;;;;5086104;28;20670;-90
2023/04/24 01:27:14;;;;;;;2.30;2.10;;;12.00;95.50;;;;;;5086016;28;20215;-90
2023/04/24 01:29:40;;;;;;;1.90;1.80;;;12.10;95.30;;;;;;5103967;28;20182;-92
2023/04/24 01:32:06;;;;;;;1.80;1.70;;;12.20;94.80;;;;;;5096215;28;20212;-91
2023/04/24 01:34:33;;;;;;;2.80;1.97;;;12.20;95.00;;;;;;5094256;28;20237;-90
2023/04/24 01:36:59;;;;;;;2.37;1.80;;;12.30;96.70;;;;;;5078147;28;20283;-91
2023/04/24 01:39:25;;;;;;;3.80;1.90;;;12.20;97.60;;;;;;5074325;28;20205;-90
2023/04/24 01:41:51;;;;;;;3.33;2.10;;;12.10;99.00;;;;;;5074186;28;20258;-90
2023/04/24 01:44:17;;;;;;;2.47;2.00;;;12.20;98.30;;;;;;5080079;28;20199;-90
2023/04/24 01:46:43;;;;;;;2.17;1.97;;;12.10;99.40;;;;;;5093763;28;20189;-90
2023/04/24 01:49:09;;;;;;;4.70;2.10;;;12.00;99.90;;;;;;5093462;28;20184;-90
2023/04/24 01:51:35;;;;;;;3.13;2.30;;;12.00;99.90;;;;;;5093792;28;20612;-90
2023/04/24 01:54:00;;;;;;;3.67;2.07;;;11.90;99.90;;;;;;5094760;28;20204;-90
2023/04/24 01:56:29;;;;;;;2.43;2.00;;;11.80;99.90;;;;;;5094741;28;20639;-92
2023/04/24 01:58:56;;;;;;;4.30;2.00;;;11.80;99.90;;;;;;5082835;28;20196;-90
2023/04/24 02:01:23;;;;;;;2.23;2.07;;;11.70;99.90;;;;;;5087559;28;20282;-90
2023/04/24 02:03:48;;;;;;;2.43;2.10;;;11.70;99.90;;;;;;5094117;28;20182;-90
2023/04/24 02:06:14;;;;;;;4.57;1.87;;;11.70;99.90;;;;;;5095780;28;20183;-90
2023/04/24 02:08:40;;;;;;;2.10;2.00;;;11.70;99.90;;;;;;5095587;28;20266;-93
2023/04/24 02:11:05;;;;;;;2.23;2.03;;;11.80;99.90;;;;;;5095252;28;20563;-90
2023/04/24 02:13:31;;;;;;;2.23;1.93;;;11.70;99.90;;;;;;5093883;28;20279;-90
2023/04/24 02:15:58;;;;;;;2.73;2.00;;;11.70;99.90;;;;;;5078440;28;20638;-90
2023/04/24 02:18:24;;;;;;;2.07;1.80;;;11.70;99.90;;;;;;5073361;28;20172;-88
2023/04/24 02:20:50;;;;;;;1.77;1.63;;;11.70;99.90;;;;;;5074980;28;20249;-89
2023/04/24 02:23:16;;;;;;;3.53;2.17;;;11.70;99.90;;;;;;5075733;28;20189;-88
2023/04/24 02:25:41;;;;;;;2.07;1.97;;;11.70;99.90;;;;;;5074659;28;20666;-89
2023/04/24 02:28:07;;;;;;;2.10;1.77;;;11.80;99.90;;;;;;5075635;28;20200;-88
2023/04/24 02:30:32;;;;;;;2.00;1.90;;;11.80;99.90;;;;;;5074170;28;20209;-89
2023/04/24 02:32:58;;;;;;;2.63;2.00;;;11.80;99.90;;;;;;5074037;28;20205;-89
2023/04/24 02:35:24;;;;;;;2.07;1.90;;;11.80;99.90;;;;;;5077078;28;20588;-92
2023/04/24 02:37:49;;;;;;;2.23;1.93;;;11.90;99.90;;;;;;5076769;28;20240;-89
2023/04/24 02:40:15;;;;;;;2.43;1.90;;;11.80;99.90;;;;;;5078429;28;20688;-92
2023/04/24 02:42:41;;;;;;;2.23;2.07;;;11.80;99.90;;;;;;5079101;28;20226;-90
2023/04/24 02:45:07;;;;;;;2.30;2.07;;;11.90;99.90;;;;;;5092451;28;20716;-89
2023/04/24 02:47:32;;;;;;;3.67;2.27;;;11.80;99.90;;;;;;5099652;28;20183;-91
2023/04/24 02:49:58;;;;;;;3.70;2.27;;;11.80;99.90;;;;;;5098798;28;20236;-89
2023/04/24 02:52:23;;;;;;;2.87;2.27;;;11.70;99.90;;;;;;5100285;28;20272;-89
2023/04/24 02:54:49;;;;;;;2.13;1.93;;;11.60;99.90;;;;;;5099732;28;20193;-90
2023/04/24 02:57:15;;;;;;;2.10;1.90;;;11.60;99.90;;;;;;5099651;28;20202;-88
2023/04/24 02:59:40;;;;;;;3.57;2.10;;;11.40;99.90;;;;;;5098375;28;20242;-86
2023/04/24 03:02:06;;;;;;;2.20;2.00;;;11.30;99.90;;;;;;5099066;28;20296;-87
2023/04/24 03:04:31;;;;;;;2.57;1.87;;;11.30;99.90;;;;;;5097748;28;20526;-89
2023/04/24 03:06:58;;;;;;;2.00;1.90;;;11.20;99.90;;;;;;5087004;28;20184;-92
2023/04/24 03:09:24;;;;;;;2.20;2.00;;;11.20;99.90;;;;;;5077976;28;20239;-89
2023/04/24 03:11:50;;;;;;;1.90;1.80;;;11.20;99.90;;;;;;5076084;28;20625;-90
2023/04/24 03:14:16;;;;;;;2.13;1.90;;;11.10;99.90;;;;;;5078603;28;20183;-90
2023/04/24 03:16:42;;;;;;;3.03;1.80;;;11.00;99.90;;;;;;5079600;28;20256;-90
2023/04/24 03:19:08;;;;;;;1.70;1.60;;;11.00;99.90;;;;;;5076541;28;20776;-90
2023/04/24 03:21:35;;;;;;;1.70;1.60;;;11.00;99.90;;;;;;5077589;28;20253;-88
2023/04/24 03:24:02;;;;;;;3.07;1.90;;;11.00;99.90;;;;;;5076636;28;20172;-90
2023/04/24 03:26:27;;;;;;;2.10;1.80;;;11.00;99.90;;;;;;5088426;28;20206;-92
2023/04/24 03:28:53;;;;;;;2.47;2.10;;;11.00;99.90;;;;;;5081152;28;20172;-91
2023/04/24 03:31:20;;;;;;;2.47;2.20;;;11.00;99.90;;;;;;5079630;28;20206;-90
2023/04/24 03:33:46;;;;;;;3.00;2.40;;;11.00;99.90;;;;;;5078092;28;20268;-90
2023/04/24 03:36:12;;;;;;;3.10;2.57;;;11.10;99.90;;;;;;5092415;28;20540;-89
2023/04/24 03:38:38;;;;;;;2.87;2.47;;;11.00;99.90;;;;;;5097592;28;20478;-89
2023/04/24 03:41:03;;;;;;;2.70;2.50;;;10.90;99.90;;;;;;5097292;28;20191;-90
2023/04/24 03:43:29;;;;;;;2.57;2.37;;;11.00;99.90;;;;;;5096223;28;20176;-90
2023/04/24 03:45:55;;;;;;;3.20;2.40;;;10.90;99.90;;;;;;5094850;28;20298;-89
2023/04/24 03:48:20;;;;;;;3.03;2.60;;;10.90;99.90;;;;;;5087127;28;20188;-90
2023/04/24 03:50:46;;;;;;;2.70;2.50;;;10.80;99.90;;;;;;5080989;28;20219;-90
2023/04/24 03:53:12;;;;;;;2.37;2.17;;;10.80;99.90;;;;;;5091462;28;20302;-92
2023/04/24 03:55:37;;;;;;;2.60;2.33;;;10.60;99.90;;;;;;5082703;28;20187;-89
2023/04/24 03:58:03;;;;;;;2.80;2.50;;;10.60;99.90;;;;;;5095606;28;20175;-89
2023/04/24 04:00:32;;;;;;;4.23;2.60;;;10.50;99.90;;;;;;5096300;28;20195;-90
2023/04/24 04:02:58;;;;;;;2.70;2.50;;;10.60;99.90;;;;;;5095362;28;20789;-88
2023/04/24 04:05:24;;;;;;;2.57;2.37;;;10.60;99.90;;;;;;5096367;28;20211;-89
2023/04/24 04:07:49;;;;;;;4.70;2.80;;;10.50;99.90;;;;;;5080839;28;20188;-89
2023/04/24 04:10:17;;;;;;;2.90;2.70;;;10.50;99.90;;;;;;5075831;28;20709;-90
2023/04/24 04:12:42;;;;;;;2.20;2.10;;;10.40;99.90;;;;;;5076714;28;20214;-89
2023/04/24 04:15:08;;;;;;;2.67;2.47;;;10.30;99.90;;;;;;5074788;28;20167;-90
2023/04/24 04:17:34;;;;;;;2.60;2.40;;;10.20;99.90;;;;;;5075327;28;20172;-89
2023/04/24 04:20:00;;;;;;;3.63;2.30;;;10.40;99.90;;;;;;5076386;28;20253;-90
2023/04/24 04:22:25;;;;;;;6.67;2.30;;;10.30;99.90;;;;;;5091934;28;20191;-89
2023/04/24 04:24:51;;;;;;;2.67;2.40;;;10.20;99.90;;;;;;5091579;28;20330;-90
2023/04/24 04:27:18;;;;;;;2.73;2.30;;;10.20;99.90;;;;;;5091555;28;20214;-89
2023/04/24 04:29:44;;;;;;;2.50;2.13;;;10.20;99.90;;;;;;5085854;28;20710;-88
2023/04/24 04:32:09;;;;;;;3.30;2.60;;;10.10;99.90;;;;;;5092073;28;20294;-91
2023/04/24 04:34:37;;;;;;;2.10;2.00;;;10.00;99.90;;;;;;5095917;28;20675;-90
2023/04/24 04:37:03;;;;;;;2.87;2.70;;;10.00;99.90;;;;;;5095889;28;20212;-90
2023/04/24 04:39:29;;;;;;;2.67;2.47;;;9.90;99.90;;;;;;5081371;28;20175;-88
2023/04/24 04:41:55;;;;;;;2.60;2.40;;;10.00;99.90;;;;;;5077187;28;20196;-88
2023/04/24 04:44:20;;;;;;;2.40;2.27;;;9.90;99.90;;;;;;5084579;28;20186;-89
2023/04/24 04:46:47;;;;;;;2.37;2.27;;;9.90;99.90;;;;;;5097933;28;20183;-90
2023/04/24 04:49:13;;;;;;;2.53;2.33;;;10.00;99.90;;;;;;5097195;28;20191;-89
2023/04/24 04:51:38;;;;;;;2.50;2.30;;;9.90;99.90;;;;;;5095455;28;20643;-89
2023/04/24 04:54:04;;;;;;;2.93;2.50;;;9.90;99.90;;;;;;5078528;28;20211;-89
2023/04/24 04:56:30;;;;;;;2.83;2.50;;;10.00;99.90;;;;;;5076559;28;20664;-89
2023/04/24 04:58:56;;;;;;;3.43;2.50;;;9.90;99.90;;;;;;5077038;28;20180;-91
2023/04/24 05:01:22;;;;;;;2.30;2.20;;;10.00;99.90;;;;;;5089282;28;20202;-90
2023/04/24 05:03:48;;;;;;;2.60;2.40;;;10.00;99.90;;;;;;5097377;28;20205;-90
2023/04/24 05:06:14;;;;;;;3.67;2.70;;;10.10;99.90;;;;;;5094996;28;20178;-89
2023/04/24 05:08:40;;;;;;;4.07;3.17;;;10.10;99.90;;;;;;5095123;28;20438;-90
2023/04/24 05:11:06;;;;;;;5.20;2.70;;;10.10;99.90;;;;;;5094786;28;20203;-88
2023/04/24 05:13:31;;;;;;;3.93;3.00;;;10.10;99.90;;;;;;5094662;28;20203;-89
2023/04/24 05:15:57;;;;;;;3.00;2.80;;;10.20;99.90;;;;;;5094203;28;20168;-90
2023/04/24 05:18:23;;;;;;;3.70;3.40;;;10.30;99.90;;;;;;5091318;28;20187;-91
2023/04/24 05:20:49;;;;;;;3.10;2.80;;;10.20;99.90;;;;;;5090659;28;20203;-90
2023/04/24 05:23:14;;;;;;;3.47;3.17;;;10.30;99.90;;;;;;5076716;28;20669;-90
2023/04/24 05:25:41;;;;;;;3.20;2.80;;;10.40;99.90;;;;;;5095581;28;20278;-89
2023/04/24 05:28:07;;;;;;;3.00;2.80;;;10.40;99.90;;;;;;5093713;28;20186;-89
2023/04/24 05:30:32;;;;;;;3.67;3.10;;;10.50;99.90;;;;;;5081618;28;20209;-89
2023/04/24 05:32:58;;;;;;;3.00;2.80;;;10.40;99.90;;;;;;5075545;28;20253;-91
2023/04/24 05:35:23;;;;;;;3.13;2.80;;;10.50;99.90;;;;;;5075476;28;20233;-90
2023/04/24 05:37:49;;;;;;;2.77;2.57;;;10.50;99.90;;;;;;5081008;28;20185;-91
2023/04/24 05:40:15;;;;;;;2.63;2.43;;;10.50;99.90;;;;;;5096992;28;20194;-90
2023/04/24 05:42:40;;;;;;;3.27;2.80;;;10.50;99.90;;;;;;5085116;28;20190;-89
2023/04/24 05:45:07;;;;;;;3.23;2.97;;;10.50;99.90;;;;;;5089228;28;20277;-90
2023/04/24 05:47:32;;;;;;;3.53;3.00;;;10.50;99.90;;;;;;5095846;28;20316;-90
2023/04/24 05:49:58;;;;;;;3.07;2.87;;;10.50;99.90;;;;;;5085129;28;20191;-90
2023/04/24 05:52:23;;;;;;;2.77;2.57;;;10.50;98.70;;;;;;5089827;28;20206;-89
2023/04/24 05:54:49;;;;;;;3.23;2.77;;;10.50;97.60;;;;;;5094037;28;20713;-90
2023/04/24 05:57:15;;;;;;;3.37;2.83;;;10.50;94.90;;;;;;5086433;28;20205;-90
2023/04/24 05:59:41;;;;;;;2.80;2.60;;;10.60;95.50;;;;;;5111881;28;20186;-90
2023/04/24 06:02:07;;;;;;;2.80;2.60;;;10.60;94.10;;;;;;5115550;28;20239;-91
2023/04/24 06:04:33;;;;;;;3.13;2.80;;;10.60;94.20;;;;;;5098001;28;20246;-89
2023/04/24 06:06:59;;;;;;;3.40;2.87;;;10.70;94.60;;;;;;5100005;28;20155;-89
2023/04/24 06:09:25;;;;;;;2.93;2.60;;;10.80;95.70;;;;;;5103220;28;20182;-90
2023/04/24 06:11:53;;;;;;;3.20;2.97;;;10.60;95.60;;;;;;5119242;28;20200;-91
2023/04/24 06:14:19;;;;;;;2.77;2.57;;;10.50;96.00;;;;;;5119384;28;20214;-91
2023/04/24 06:16:45;;;;;;;4.37;2.77;;;10.50;96.80;;;;;;5118877;28;20754;-90
2023/04/24 06:19:10;;;;;;;3.33;3.03;;;10.70;94.70;;;;;;5117641;28;20181;-89
2023/04/24 06:21:36;;;;;;;3.70;3.10;;;10.60;94.90;;;;;;5084507;28;20261;-89
2023/04/24 06:24:04;;;;;;;3.03;2.83;;;10.60;96.20;;;;;;5095466;28;20270;-91
2023/04/24 06:26:29;;;;;;;3.70;3.30;;;10.60;95.80;;;;;;5088901;28;20504;-90
2023/04/24 06:28:55;;;;;;;3.20;3.00;;;10.50;95.00;;;;;;5094356;28;20207;-91
2023/04/24 06:31:22;;;;;;;4.33;2.90;;;10.70;90.70;;;;;;5085405;28;20522;-91
2023/04/24 06:33:49;;;;;;;4.97;3.60;;;10.70;91.10;;;;;;5076645;28;20211;-90
2023/04/24 06:36:15;;;;;;;3.87;3.37;;;10.70;93.40;;;;;;5078818;28;20176;-92
2023/04/24 06:38:41;;;;;;;3.80;3.50;;;10.60;90.30;;;;;;5076560;28;20205;-90
2023/04/24 06:41:07;;;;;;;3.23;2.93;;;10.70;91.50;;;;;;5088177;28;20219;-89
2023/04/24 06:43:33;;;;;;;3.53;3.23;;;10.80;91.50;;;;;;5098838;28;20178;-90
2023/04/24 06:46:00;;;;;;;3.63;3.33;;;10.80;91.00;;;;;;5096558;28;20224;-89
2023/04/24 06:48:26;;;;;;;3.87;3.30;;;10.90;88.00;;;;;;5097266;28;20544;-89
2023/04/24 06:50:52;;;;;;;3.60;3.30;;;10.80;86.90;;;;;;5091728;28;20285;-89
2023/04/24 06:53:18;;;;;;;5.40;3.20;;;10.90;84.80;;;;;;5077345;28;20235;-90
2023/04/24 06:55:45;;;;;;;3.40;3.10;;;10.90;85.10;;;;;;5078040;28;20242;-89
2023/04/24 06:58:12;;;;;;;3.20;2.70;;;11.00;82.30;;;;;;5078548;28;20182;-90
2023/04/24 07:00:37;;;;;;;3.20;2.90;;;10.90;83.70;;;;;;5079257;28;20195;-89
2023/04/24 07:03:05;;;;;;;7.07;3.20;;;10.90;84.20;;;;;;5078655;28;20182;-90
2023/04/24 07:05:34;;;;;;;3.27;2.97;;;11.00;84.90;;;;;;5082493;28;20186;-92
2023/04/24 07:08:00;;;;;;;4.93;3.30;;;11.10;83.80;;;;;;5088928;28;20179;-90
2023/04/24 07:10:28;;;;;;;3.13;2.93;;;11.20;82.90;;;;;;5094085;28;20195;-89
2023/04/24 07:12:54;;;;;;;3.33;3.00;;;11.20;83.30;;;;;;5085738;28;20200;-90
2023/04/24 07:15:20;;;;;;;3.20;2.90;;;11.20;83.20;;;;;;5083798;28;20191;-90
2023/04/24 07:17:46;;;;;;;3.03;2.63;;;11.20;84.00;;;;;;5081059;28;20186;-90
2023/04/24 07:20:14;;;;;;;5.40;3.00;;;11.30;81.30;;;;;;5083040;28;20287;-90
2023/04/24 07:22:40;;;;;;;3.53;2.67;;;11.30;80.90;;;;;;5099694;28;20725;-89
2023/04/24 07:25:06;;;;;;;4.13;2.70;;;11.40;78.80;;;;;;5104995;28;20179;-89
2023/04/24 07:27:32;;;;;;;2.63;2.30;;;11.40;79.00;;;;;;5102927;28;20183;-90
2023/04/24 07:29:58;;;;;;;2.50;2.30;;;11.70;76.20;;;;;;5104098;28;20692;-89
2023/04/24 07:32:23;;;;;;;4.70;2.47;;;11.70;74.60;;;;;;5102238;28;20198;-90
2023/04/24 07:34:49;;;;;;;3.20;2.40;;;11.60;72.30;;;;;;5104125;28;20653;-90
2023/04/24 07:37:15;;;;;;;3.47;2.60;;;11.50;73.70;;;;;;5102667;28;20226;-90
2023/04/24 07:39:41;;;;;;;2.57;2.37;;;11.50;74.20;;;;;;5103235;28;20239;-90
2023/04/24 07:42:06;;;;;;;2.47;2.27;;;11.60;75.70;;;;;;5103298;28;20536;-90
2023/04/24 07:44:32;;;;;;;2.70;2.50;;;11.50;72.40;;;;;;5103676;28;20200;-88
2023/04/24 07:46:58;;;;;;;2.70;2.23;;;11.60;73.60;;;;;;5103887;28;20171;-91
2023/04/24 07:49:23;;;;;;;3.27;2.40;;;11.50;72.60;;;;;;5089927;28;20183;-93
2023/04/24 07:51:50;;;;;;;4.90;2.93;;;11.40;74.60;;;;;;5093349;28;20191;-92
2023/04/24 07:54:15;;;;;;;3.20;2.40;;;11.30;75.00;;;;;;5095362;28;20213;-92
2023/04/24 07:56:42;;;;;;;2.80;2.60;;;11.30;76.40;;;;;;5095847;28;20389;-92
2023/04/24 07:59:09;;;;;;;4.00;3.10;;;11.20;78.40;;;;;;5095927;28;20176;-89
2023/04/24 08:01:35;;;;;;;3.43;3.13;;;11.00;79.50;;;;;;5095963;28;20203;-94
2023/04/24 08:04:01;;;;;;;2.93;2.63;;;11.00;81.90;;;;;;5092451;28;20187;-89
2023/04/24 08:06:30;;;;;;;3.20;3.00;;;11.00;83.30;;;;;;5081267;28;20172;-90
2023/04/24 08:08:56;;;;;;;3.37;2.87;;;11.20;82.10;;;;;;5084801;28;20206;-91
2023/04/24 08:11:22;;;;;;;3.53;3.23;;;11.30;79.50;;;;;;5082399;28;20187;-89
2023/04/24 08:13:47;;;;;;;3.03;2.80;;;11.70;76.90;;;;;;5085616;28;20299;-91
2023/04/24 08:16:13;;;;;;;3.00;2.80;;;11.80;73.20;;;;;;5086105;28;20181;-89
2023/04/24 08:18:39;;;;;;;2.73;2.53;;;11.80;75.00;;;;;;5086225;28;20183;-91
2023/04/24 08:21:04;;;;;;;2.20;2.10;;;11.60;77.20;;;;;;5082673;28;20314;-90
2023/04/24 08:23:30;;;;;;;2.67;2.47;;;11.40;78.80;;;;;;5082019;28;20684;-90
2023/04/24 08:25:57;;;;;;;5.93;3.40;;;10.80;85.10;;;;;;5080860;28;20190;-90
2023/04/24 08:28:22;;;;;;;5.30;2.73;;;10.50;90.80;;;;;;5079021;28;20278;-91
2023/04/24 08:30:52;;;;;;;3.67;2.63;;;10.40;94.00;;;;;;5079656;28;20224;-91
2023/04/24 08:33:18;;;;;;;2.60;2.40;;;10.10;95.30;;;;;;5096815;28;20311;-91
2023/04/24 08:35:43;;;;;;;2.80;2.60;;;10.10;93.60;;;;;;5098644;28;20716;-89
2023/04/24 08:38:09;;;;;;;2.80;2.60;;;10.10;97.50;;;;;;5098664;28;20175;-90
2023/04/24 08:40:36;;;;;;;4.10;3.03;;;10.20;97.70;;;;;;5097415;28;20228;-90
2023/04/24 08:43:03;;;;;;;3.40;3.10;;;10.10;96.80;;;;;;5098475;28;20277;-90
2023/04/24 08:45:29;;;;;;;3.27;2.80;;;10.10;96.50;;;;;;5096174;28;20244;-90
2023/04/24 08:47:55;;;;;;;3.83;2.90;;;10.40;94.20;;;;;;5098070;28;20237;-89
2023/04/24 08:50:22;;;;;;;8.70;5.17;;;10.70;93.00;;;;;;5097288;28;20198;-91
2023/04/24 08:52:50;;;;;;;3.77;3.10;;;11.00;89.50;;;;;;5098193;28;20434;-90
2023/04/24 08:55:18;;;;;;;5.63;3.43;;;11.50;90.70;;;;;;5087625;28;20192;-91
2023/04/24 08:57:45;;;;;;;4.30;2.70;;;11.80;84.40;;;;;;5076559;28;20152;-90
2023/04/24 09:00:12;;;;;;;3.83;3.07;;;11.90;81.10;;;;;;5078210;28;20211;-89
2023/04/24 09:02:43;;;;;;;3.00;2.67;;;11.90;79.20;;;;;;5078468;28;20207;-92
2023/04/24 09:05:09;;;;;;;3.37;3.00;;;12.00;75.60;;;;;;5078004;28;20171;-91
2023/04/24 09:07:39;;;;;;;2.73;2.53;;;12.00;75.00;;;;;;5080710;28;20179;-90
2023/04/24 09:10:06;;;;;;;4.30;3.00;;;12.00;75.60;;;;;;5080583;28;20757;-91
2023/04/24 09:12:33;;;;;;;2.93;2.63;;;12.10;74.20;;;;;;5080097;28;20289;-90
2023/04/24 09:15:00;;;;;;;3.27;2.80;;;11.90;70.90;;;;;;5080045;28;20653;-90
2023/04/24 09:17:28;;;;;;;4.17;2.93;;;11.90;70.30;;;;;;5078587;28;20172;-90
2023/04/24 09:19:53;;;;;;;3.20;3.00;;;12.20;70.50;;;;;;5079291;28;20173;-90
2023/04/24 09:22:20;;;;;;;3.53;3.23;;;12.30;70.40;;;;;;5079802;28;20545;-90
2023/04/24 09:24:45;;;;;;;3.83;3.50;;;12.20;70.30;;;;;;5079428;28;20180;-90
2023/04/24 09:27:12;;;;;;;3.90;3.40;;;12.20;66.70;;;;;;5094404;28;20616;-90
2023/04/24 09:29:38;;;;;;;4.37;3.43;;;12.10;69.00;;;;;;5087525;28;20179;-92
2023/04/24 09:32:21;;;;;;;3.83;3.50;;;12.00;69.30;;;;;;5099398;28;20206;-92
2023/04/24 09:34:48;;;;;;;3.90;3.50;;;12.00;69.00;;;;;;5100112;28;20213;-90
2023/04/24 09:37:38;;;;;;;4.23;3.87;;;12.00;69.10;;;;;;5099677;28;20174;-90
2023/04/24 09:40:08;;;;;;;5.23;3.60;;;12.00;65.60;;;;;;5099594;28;20224;-90
2023/04/24 09:42:33;;;;;;;3.90;3.60;;;12.00;66.00;;;;;;5094943;28;20175;-91
2023/04/24 09:44:59;;;;;;;4.17;3.80;;;12.10;68.20;;;;;;5077372;28;20233;-92
2023/04/24 09:47:24;;;;;;;4.10;3.60;;;12.20;67.50;;;;;;5078181;28;20266;-91
2023/04/24 09:49:50;;;;;;;5.53;3.63;;;12.10;67.10;;;;;;5079175;28;20471;-91
2023/04/24 09:52:16;;;;;;;3.57;3.27;;;12.10;69.40;;;;;;5078433;28;20178;-91
2023/04/24 09:54:41;;;;;;;3.80;3.50;;;12.30;68.80;;;;;;5078887;28;20557;-90
2023/04/24 09:57:08;;;;;;;3.83;3.23;;;12.30;67.70;;;;;;5078710;28;20183;-91
2023/04/24 09:59:34;;;;;;;3.70;3.40;;;12.40;68.60;;;;;;5078899;28;20180;-91
2023/04/24 10:02:01;;;;;;;3.23;2.60;;;12.50;66.70;;;;;;5079645;28;20196;-91
2023/04/24 10:04:28;;;;;;;6.07;3.43;;;12.70;66.70;;;;;;5080365;28;20193;-89
2023/04/24 10:06:56;;;;;;;3.60;3.30;;;12.80;65.10;;;;;;5078894;28;20272;-90
2023/04/24 10:09:26;;;;;;;3.53;3.00;;;12.80;66.70;;;;;;5079300;28;20181;-94
2023/04/24 10:11:54;;;;;;;3.17;2.87;;;13.00;66.30;;;;;;5080273;28;20195;-90
2023/04/24 10:14:22;;;;;;;3.23;2.90;;;13.00;66.50;;;;;;5080600;28;20204;-90
2023/04/24 10:16:49;;;;;;;3.00;2.73;;;12.80;64.10;;;;;;5081181;28;20182;-89
2023/04/24 10:19:16;;;;;;;2.97;2.77;;;12.50;66.30;;;;;;5080294;28;20181;-92
2023/04/24 10:21:46;;;;;;;3.27;3.07;;;12.30;68.60;;;;;;5079847;28;20205;-90
2023/04/24 10:24:16;;;;;;;3.37;3.07;;;12.30;67.30;;;;;;5080479;28;20180;-90
2023/04/24 10:26:43;;;;;;;3.33;3.00;;;12.10;68.20;;;;;;5093625;28;20195;-91
2023/04/24 10:29:12;;;;;;;3.17;2.97;;;12.10;67.40;;;;;;5101107;28;20188;-91
2023/04/24 10:31:38;;;;;;;3.67;3.37;;;12.10;66.00;;;;;;5099851;28;20268;-90
2023/04/24 10:34:09;;;;;;;3.50;3.20;;;11.90;67.00;;;;;;5099897;28;20209;-90
2023/04/24 10:36:37;;;;;;;5.40;3.40;;;11.90;67.90;;;;;;5098152;28;20179;-90
2023/04/24 10:39:08;;;;;;;11.20;3.80;;;11.80;67.10;;;;;;5098265;28;20200;-90
2023/04/24 10:41:36;;;;;;;4.00;3.40;;;11.80;69.30;;;;;;5099628;28;20196;-91
2023/04/24 10:44:13;;;;;;;3.53;3.23;;;11.80;67.10;;;;;;5099177;28;20185;-89
2023/04/24 10:46:42;;;;;;;3.90;3.60;;;11.80;68.80;;;;;;5109643;28;20179;-90
2023/04/24 10:49:08;;;;;;;3.77;3.47;;;11.90;69.00;;;;;;5102357;28;20271;-90
2023/04/24 10:51:46;;;;;;;3.50;3.20;;;11.80;69.70;;;;;;5100917;28;20206;-90
2023/04/24 10:54:27;;;;;;;3.50;3.20;;;11.80;72.20;;;;;;5101794;28;20230;-91
2023/04/24 10:56:54;;;;;;;5.07;3.47;;;11.90;70.90;;;;;;5102797;28;20258;-90
2023/04/24 10:59:34;;;;;;;4.07;3.67;;;12.00;72.90;;;;;;5106191;28;20188;-93
2023/04/24 11:02:00;;;;;;;3.83;3.50;;;12.00;69.50;;;;;;5104102;28;20197;-92
2023/04/24 11:04:33;;;;;;;5.13;4.23;;;12.00;70.30;;;;;;5100509;28;20195;-91
2023/04/24 11:06:59;;;;;;;3.90;3.60;;;11.80;72.00;;;;;;5100066;28;20202;-92
2023/04/24 11:09:30;;;;;;;4.10;3.80;;;11.70;70.50;;;;;;5100562;28;20191;-92
2023/04/24 11:12:13;;;;;;;4.57;4.17;;;11.70;75.30;;;;;;5097652;28;20211;-91
2023/04/24 11:14:57;;;;;;;4.00;3.60;;;11.80;72.10;;;;;;5085670;28;20175;-90
2023/04/24 11:17:37;;;;;;;4.73;4.20;;;11.90;71.50;;;;;;5084843;28;20676;-90
2023/04/24 11:20:17;;;;;;;4.53;4.10;;;12.00;73.00;;;;;;5102198;28;20236;-92
2023/04/24 11:22:43;;;;;;;4.87;4.43;;;12.00;71.20;;;;;;5103050;28;20705;-91
2023/04/24 11:25:11;;;;;;;5.90;5.37;;;11.90;74.30;;;;;;5102636;28;20197;-90
2023/04/24 11:27:45;;;;;;;5.80;5.30;;;11.80;76.60;;;;;;5102418;28;20179;-90
2023/04/24 11:30:11;;;;;;;5.80;5.30;;;11.60;81.00;;;;;;5102720;28;20263;-90
2023/04/24 11:32:41;;;;;;;6.20;5.60;;;11.50;83.80;;;;;;5100373;28;20578;-91
2023/04/24 11:35:10;;;;;;;5.87;5.27;;;11.30;85.60;;;;;;5099751;28;20197;-90
2023/04/24 11:37:40;;;;;;;5.93;5.33;;;11.20;88.50;;;;;;5101024;28;20181;-89
2023/04/24 11:40:08;;;;;;;5.90;5.40;;;11.20;86.90;;;;;;5103309;28;20190;-88
2023/04/24 11:42:36;;;;;;;5.83;5.33;;;11.20;87.10;;;;;;5103042;28;20658;-90
2023/04/24 11:45:06;;;;;;;5.97;5.47;;;11.00;88.40;;;;;;5104074;28;20175;-90
2023/04/24 11:47:35;;;;;;;5.87;5.47;;;10.90;91.00;;;;;;5103490;28;20187;-89
2023/04/24 11:50:02;;;;;;;6.17;5.67;;;10.80;89.50;;;;;;5099864;28;20183;-89
2023/04/24 11:52:29;;;;;;;5.77;5.27;;;10.90;91.80;;;;;;5099221;28;20211;-89
2023/04/24 11:54:54;;;;;;;5.33;4.77;;;11.00;93.50;;;;;;5100615;28;20182;-89
2023/04/24 11:57:26;;;;;;;4.97;4.47;;;11.00;91.50;;;;;;5102341;28;20213;-89
2023/04/24 11:59:52;;;;;;;4.67;4.27;;;11.20;90.00;;;;;;5101239;28;20243;-90
2023/04/24 12:02:25;;;;;;;4.50;4.10;;;11.40;88.70;;;;;;5101667;28;20189;-89
2023/04/24 12:04:51;;;;;;;4.83;4.37;;;12.00;85.90;;;;;;5086839;28;20183;-87
2023/04/24 12:07:17;;;;;;;5.07;4.67;;;12.40;82.70;;;;;;5081127;28;20192;-89
2023/04/24 12:09:47;;;;;;;5.63;4.70;;;12.80;81.90;;;;;;5101774;28;20182;-90
2023/04/24 12:12:15;;;;;;;5.60;5.10;;;13.00;80.40;;;;;;5101763;28;20212;-90
2023/04/24 12:14:53;;;;;;;5.47;4.70;;;12.80;76.70;;;;;;5102146;28;20168;-89
2023/04/24 12:17:25;;;;;;;5.20;4.80;;;12.30;75.10;;;;;;5095842;28;20206;-90
2023/04/24 12:19:51;;;;;;;4.93;4.47;;;12.10;76.90;;;;;;5090638;28;20182;-91
2023/04/24 12:22:17;;;;;;;5.23;4.73;;;12.30;78.50;;;;;;5094908;28;20247;-90
2023/04/24 12:25:03;;;;;;;5.03;4.63;;;12.70;77.80;;;;;;5095612;28;20553;-90
2023/04/24 12:27:31;;;;;;;5.37;4.43;;;13.00;71.90;;;;;;5094495;28;20191;-91
2023/04/24 12:29:57;;;;;;;4.87;4.47;;;13.30;68.60;;;;;;5097049;28;20235;-90
2023/04/24 12:32:25;;;;;;;5.07;4.63;;;13.80;72.10;;;;;;5091407;28;20434;-90
2023/04/24 12:34:51;;;;;;;5.33;4.83;;;14.00;67.70;;;;;;5094785;28;20198;-88
2023/04/24 12:37:17;;;;;;;4.93;4.53;;;13.90;68.30;;;;;;5090812;28;20196;-92
2023/04/24 12:40:00;;;;;;;6.53;5.00;;;14.40;70.10;;;;;;5094222;28;20190;-90
2023/04/24 12:42:28;;;;;;;5.40;4.90;;;14.20;64.10;;;;;;5091370;28;20232;-90
2023/04/24 12:44:58;;;;;;;4.90;4.50;;;14.50;65.10;;;;;;5093149;28;20220;-91
2023/04/24 12:47:24;;;;;;;4.70;4.30;;;14.60;61.50;;;;;;5091617;28;20171;-90